sensor_id;sensor_type;location;lat;lon;timestamp;P1;durP1;ratioP1;P2;durP2;ratioP2
56136;SDS011;42008;52.934;5.884;2023-04-25T00:00:25;27.77;;;4.60;;
56136;SDS011;42008;52.934;5.884;2023-04-25T00:02:51;26.17;;;4.40;;
56136;SDS011;42008;52.934;5.884;2023-04-25T00:05:17;23.70;;;4.77;;
56136;SDS011;42008;52.934;5.884;2023-04-25T00:07:42;22.50;;;4.13;;
56136;SDS011;42008;52.934;5.884;2023-04-25T00:10:09;30.50;;;5.20;;
56136;SDS011;42008;52.934;5.884;2023-04-25T00:12:36;24.40;;;4.77;;
56136;SDS011;42008;52.934;5.884;2023-04-25T00:15:02;28.13;;;5.13;;
56136;SDS011;42008;52.934;5.884;2023-04-25T00:17:28;29.73;;;4.67;;
56136;SDS011;42008;52.934;5.884;2023-04-25T00:19:53;26.40;;;5.53;;
56136;SDS011;42008;52.934;5.884;2023-04-25T00:22:20;22.67;;;5.03;;
56136;SDS011;42008;52.934;5.884;2023-04-25T00:24:46;22.33;;;5.80;;
56136;SDS011;42008;52.934;5.884;2023-04-25T00:27:12;22.67;;;4.87;;
56136;SDS011;42008;52.934;5.884;2023-04-25T00:29:37;25.03;;;4.47;;
56136;SDS011;42008;52.934;5.884;2023-04-25T00:32:03;25.00;;;4.37;;
56136;SDS011;42008;52.934;5.884;2023-04-25T00:34:29;33.00;;;4.50;;
56136;SDS011;42008;52.934;5.884;2023-04-25T00:36:54;24.13;;;3.97;;
56136;SDS011;42008;52.934;5.884;2023-04-25T00:39:20;26.37;;;4.63;;
56136;SDS011;42008;52.934;5.884;2023-04-25T00:41:46;28.83;;;5.90;;
56136;SDS011;42008;52.934;5.884;2023-04-25T00:44:12;21.90;;;4.23;;
56136;SDS011;42008;52.934;5.884;2023-04-25T00:46:41;32.47;;;6.00;;
56136;SDS011;42008;52.934;5.884;2023-04-25T00:49:07;26.40;;;4.83;;
56136;SDS011;42008;52.934;5.884;2023-04-25T00:51:33;25.77;;;4.60;;
56136;SDS011;42008;52.934;5.884;2023-04-25T00:53:59;25.17;;;4.77;;
56136;SDS011;42008;52.934;5.884;2023-04-25T00:56:25;22.63;;;4.73;;
56136;SDS011;42008;52.934;5.884;2023-04-25T00:58:52;36.63;;;5.83;;
56136;SDS011;42008;52.934;5.884;2023-04-25T01:01:21;22.40;;;4.63;;
56136;SDS011;42008;52.934;5.884;2023-04-25T01:03:47;21.87;;;4.60;;
56136;SDS011;42008;52.934;5.884;2023-04-25T01:06:15;18.40;;;3.40;;
56136;SDS011;42008;52.934;5.884;2023-04-25T01:08:41;28.73;;;4.17;;
56136;SDS011;42008;52.934;5.884;2023-04-25T01:11:06;18.60;;;3.90;;
56136;SDS011;42008;52.934;5.884;2023-04-25T01:13:32;22.80;;;4.13;;
56136;SDS011;42008;52.934;5.884;2023-04-25T01:15:58;15.77;;;3.73;;
56136;SDS011;42008;52.934;5.884;2023-04-25T01:18:25;18.57;;;3.97;;
56136;SDS011;42008;52.934;5.884;2023-04-25T01:20:51;17.17;;;3.73;;
56136;SDS011;42008;52.934;5.884;2023-04-25T01:23:18;14.90;;;3.30;;
56136;SDS011;42008;52.934;5.884;2023-04-25T01:25:45;15.63;;;3.40;;
56136;SDS011;42008;52.934;5.884;2023-04-25T01:28:11;15.83;;;2.90;;
56136;SDS011;42008;52.934;5.884;2023-04-25T01:30:37;9.27;;;2.10;;
56136;SDS011;42008;52.934;5.884;2023-04-25T01:33:04;10.23;;;2.30;;
56136;SDS011;42008;52.934;5.884;2023-04-25T01:35:30;12.70;;;2.70;;
56136;SDS011;42008;52.934;5.884;2023-04-25T01:37:57;14.90;;;2.67;;
56136;SDS011;42008;52.934;5.884;2023-04-25T01:40:23;16.23;;;2.97;;
56136;SDS011;42008;52.934;5.884;2023-04-25T01:42:50;22.13;;;4.43;;
56136;SDS011;42008;52.934;5.884;2023-04-25T01:45:16;22.37;;;3.90;;
56136;SDS011;42008;52.934;5.884;2023-04-25T01:47:42;19.43;;;3.47;;
56136;SDS011;42008;52.934;5.884;2023-04-25T01:50:13;22.93;;;3.77;;
56136;SDS011;42008;52.934;5.884;2023-04-25T01:52:39;19.63;;;3.50;;
56136;SDS011;42008;52.934;5.884;2023-04-25T01:55:05;21.40;;;4.00;;
56136;SDS011;42008;52.934;5.884;2023-04-25T01:57:31;17.73;;;3.70;;
56136;SDS011;42008;52.934;5.884;2023-04-25T01:59:58;26.90;;;4.60;;
56136;SDS011;42008;52.934;5.884;2023-04-25T02:02:26;16.50;;;3.03;;
56136;SDS011;42008;52.934;5.884;2023-04-25T02:04:51;17.00;;;3.33;;
56136;SDS011;42008;52.934;5.884;2023-04-25T02:07:17;19.77;;;3.37;;
56136;SDS011;42008;52.934;5.884;2023-04-25T02:09:43;20.43;;;4.00;;
56136;SDS011;42008;52.934;5.884;2023-04-25T02:12:09;20.10;;;4.03;;
56136;SDS011;42008;52.934;5.884;2023-04-25T02:14:35;21.20;;;3.33;;
56136;SDS011;42008;52.934;5.884;2023-04-25T02:17:00;22.43;;;3.57;;
56136;SDS011;42008;52.934;5.884;2023-04-25T02:19:26;22.70;;;4.70;;
56136;SDS011;42008;52.934;5.884;2023-04-25T02:21:52;23.50;;;4.37;;
56136;SDS011;42008;52.934;5.884;2023-04-25T02:24:17;15.20;;;3.30;;
56136;SDS011;42008;52.934;5.884;2023-04-25T02:26:43;18.30;;;3.53;;
56136;SDS011;42008;52.934;5.884;2023-04-25T02:29:09;16.23;;;2.97;;
56136;SDS011;42008;52.934;5.884;2023-04-25T02:31:35;17.20;;;3.13;;
56136;SDS011;42008;52.934;5.884;2023-04-25T02:34:00;16.00;;;2.77;;
56136;SDS011;42008;52.934;5.884;2023-04-25T02:36:26;18.47;;;3.27;;
56136;SDS011;42008;52.934;5.884;2023-04-25T02:38:52;11.40;;;2.70;;
56136;SDS011;42008;52.934;5.884;2023-04-25T02:41:18;10.17;;;2.40;;
56136;SDS011;42008;52.934;5.884;2023-04-25T02:43:43;14.20;;;2.93;;
56136;SDS011;42008;52.934;5.884;2023-04-25T02:46:09;13.67;;;2.80;;
56136;SDS011;42008;52.934;5.884;2023-04-25T02:48:35;11.20;;;2.20;;
56136;SDS011;42008;52.934;5.884;2023-04-25T02:51:00;18.47;;;3.20;;
56136;SDS011;42008;52.934;5.884;2023-04-25T02:53:26;9.67;;;2.20;;
56136;SDS011;42008;52.934;5.884;2023-04-25T02:55:51;17.03;;;3.07;;
56136;SDS011;42008;52.934;5.884;2023-04-25T02:58:17;14.50;;;2.67;;
56136;SDS011;42008;52.934;5.884;2023-04-25T03:00:43;14.97;;;2.57;;
56136;SDS011;42008;52.934;5.884;2023-04-25T03:03:09;9.77;;;2.60;;
56136;SDS011;42008;52.934;5.884;2023-04-25T03:05:34;15.93;;;2.77;;
56136;SDS011;42008;52.934;5.884;2023-04-25T03:08:00;12.63;;;2.57;;
56136;SDS011;42008;52.934;5.884;2023-04-25T03:10:25;15.37;;;2.43;;
56136;SDS011;42008;52.934;5.884;2023-04-25T03:12:51;20.90;;;3.20;;
56136;SDS011;42008;52.934;5.884;2023-04-25T03:15:17;10.27;;;2.40;;
56136;SDS011;42008;52.934;5.884;2023-04-25T03:17:43;16.73;;;2.77;;
56136;SDS011;42008;52.934;5.884;2023-04-25T03:20:09;13.57;;;3.00;;
56136;SDS011;42008;52.934;5.884;2023-04-25T03:22:35;14.37;;;2.40;;
56136;SDS011;42008;52.934;5.884;2023-04-25T03:25:01;16.70;;;3.03;;
56136;SDS011;42008;52.934;5.884;2023-04-25T03:27:26;17.03;;;2.70;;
56136;SDS011;42008;52.934;5.884;2023-04-25T03:29:52;15.90;;;3.43;;
56136;SDS011;42008;52.934;5.884;2023-04-25T03:32:18;12.13;;;2.80;;
56136;SDS011;42008;52.934;5.884;2023-04-25T03:34:43;17.70;;;3.00;;
56136;SDS011;42008;52.934;5.884;2023-04-25T03:37:09;17.67;;;2.87;;
56136;SDS011;42008;52.934;5.884;2023-04-25T03:39:34;20.00;;;2.90;;
56136;SDS011;42008;52.934;5.884;2023-04-25T03:42:00;14.37;;;2.50;;
56136;SDS011;42008;52.934;5.884;2023-04-25T03:44:26;10.03;;;2.83;;
56136;SDS011;42008;52.934;5.884;2023-04-25T03:46:51;18.03;;;3.50;;
56136;SDS011;42008;52.934;5.884;2023-04-25T03:49:17;16.90;;;2.70;;
56136;SDS011;42008;52.934;5.884;2023-04-25T03:51:42;15.30;;;2.93;;
56136;SDS011;42008;52.934;5.884;2023-04-25T03:54:08;19.20;;;3.40;;
56136;SDS011;42008;52.934;5.884;2023-04-25T03:56:33;12.40;;;2.27;;
56136;SDS011;42008;52.934;5.884;2023-04-25T03:58:59;10.97;;;3.00;;
56136;SDS011;42008;52.934;5.884;2023-04-25T04:01:25;12.73;;;2.20;;
56136;SDS011;42008;52.934;5.884;2023-04-25T04:03:51;11.40;;;2.10;;
56136;SDS011;42008;52.934;5.884;2023-04-25T04:06:16;11.73;;;2.57;;
56136;SDS011;42008;52.934;5.884;2023-04-25T04:08:42;12.60;;;2.57;;
56136;SDS011;42008;52.934;5.884;2023-04-25T04:11:08;10.57;;;2.40;;
56136;SDS011;42008;52.934;5.884;2023-04-25T04:13:33;17.87;;;3.83;;
56136;SDS011;42008;52.934;5.884;2023-04-25T04:15:59;10.90;;;2.57;;
56136;SDS011;42008;52.934;5.884;2023-04-25T04:18:25;13.70;;;2.33;;
56136;SDS011;42008;52.934;5.884;2023-04-25T04:20:50;10.77;;;2.70;;
56136;SDS011;42008;52.934;5.884;2023-04-25T04:23:16;13.47;;;2.43;;
56136;SDS011;42008;52.934;5.884;2023-04-25T04:25:41;10.87;;;2.57;;
56136;SDS011;42008;52.934;5.884;2023-04-25T04:28:07;11.10;;;2.63;;
56136;SDS011;42008;52.934;5.884;2023-04-25T04:30:33;13.23;;;2.47;;
56136;SDS011;42008;52.934;5.884;2023-04-25T04:33:01;13.63;;;2.73;;
56136;SDS011;42008;52.934;5.884;2023-04-25T04:35:27;14.53;;;3.23;;
56136;SDS011;42008;52.934;5.884;2023-04-25T04:37:53;13.07;;;2.40;;
56136;SDS011;42008;52.934;5.884;2023-04-25T04:40:19;20.10;;;2.87;;
56136;SDS011;42008;52.934;5.884;2023-04-25T04:42:46;15.70;;;3.37;;
56136;SDS011;42008;52.934;5.884;2023-04-25T04:45:13;20.37;;;3.47;;
56136;SDS011;42008;52.934;5.884;2023-04-25T04:47:39;16.00;;;3.30;;
56136;SDS011;42008;52.934;5.884;2023-04-25T04:50:08;16.93;;;3.23;;
56136;SDS011;42008;52.934;5.884;2023-04-25T04:52:35;20.10;;;2.87;;
56136;SDS011;42008;52.934;5.884;2023-04-25T04:55:01;18.43;;;3.17;;
56136;SDS011;42008;52.934;5.884;2023-04-25T04:57:28;19.80;;;3.40;;
56136;SDS011;42008;52.934;5.884;2023-04-25T04:59:54;17.07;;;2.83;;
56136;SDS011;42008;52.934;5.884;2023-04-25T05:02:20;6.33;;;1.90;;
56136;SDS011;42008;52.934;5.884;2023-04-25T05:04:46;7.73;;;1.50;;
56136;SDS011;42008;52.934;5.884;2023-04-25T05:07:11;7.80;;;1.67;;
56136;SDS011;42008;52.934;5.884;2023-04-25T05:09:37;12.23;;;2.10;;
56136;SDS011;42008;52.934;5.884;2023-04-25T05:12:03;10.03;;;1.97;;
56136;SDS011;42008;52.934;5.884;2023-04-25T05:14:29;12.90;;;2.00;;
56136;SDS011;42008;52.934;5.884;2023-04-25T05:16:54;7.13;;;1.87;;
56136;SDS011;42008;52.934;5.884;2023-04-25T05:19:20;9.00;;;1.93;;
56136;SDS011;42008;52.934;5.884;2023-04-25T05:21:46;10.60;;;2.40;;
56136;SDS011;42008;52.934;5.884;2023-04-25T05:24:11;11.17;;;2.70;;
56136;SDS011;42008;52.934;5.884;2023-04-25T05:26:37;10.50;;;2.43;;
56136;SDS011;42008;52.934;5.884;2023-04-25T05:29:03;10.40;;;2.10;;
56136;SDS011;42008;52.934;5.884;2023-04-25T05:31:28;15.07;;;2.50;;
56136;SDS011;42008;52.934;5.884;2023-04-25T05:33:54;13.27;;;3.00;;
56136;SDS011;42008;52.934;5.884;2023-04-25T05:36:20;15.57;;;2.80;;
56136;SDS011;42008;52.934;5.884;2023-04-25T05:38:45;22.47;;;2.90;;
56136;SDS011;42008;52.934;5.884;2023-04-25T05:41:11;18.33;;;2.60;;
56136;SDS011;42008;52.934;5.884;2023-04-25T05:43:36;18.17;;;2.50;;
56136;SDS011;42008;52.934;5.884;2023-04-25T05:46:02;21.03;;;3.50;;
56136;SDS011;42008;52.934;5.884;2023-04-25T05:48:28;11.03;;;2.23;;
56136;SDS011;42008;52.934;5.884;2023-04-25T05:50:53;12.67;;;2.47;;
56136;SDS011;42008;52.934;5.884;2023-04-25T05:53:19;10.00;;;2.60;;
56136;SDS011;42008;52.934;5.884;2023-04-25T05:55:46;12.10;;;2.03;;
56136;SDS011;42008;52.934;5.884;2023-04-25T05:58:11;13.83;;;2.70;;
56136;SDS011;42008;52.934;5.884;2023-04-25T06:00:37;13.87;;;2.80;;
56136;SDS011;42008;52.934;5.884;2023-04-25T06:03:03;9.20;;;2.30;;
56136;SDS011;42008;52.934;5.884;2023-04-25T06:05:29;10.50;;;1.90;;
56136;SDS011;42008;52.934;5.884;2023-04-25T06:07:55;10.80;;;2.37;;
56136;SDS011;42008;52.934;5.884;2023-04-25T06:10:20;12.40;;;2.57;;
56136;SDS011;42008;52.934;5.884;2023-04-25T06:12:47;10.60;;;2.50;;
56136;SDS011;42008;52.934;5.884;2023-04-25T06:15:13;12.87;;;2.90;;
56136;SDS011;42008;52.934;5.884;2023-04-25T06:17:38;13.53;;;2.60;;
56136;SDS011;42008;52.934;5.884;2023-04-25T06:20:04;14.27;;;3.20;;
56136;SDS011;42008;52.934;5.884;2023-04-25T06:22:31;18.53;;;2.60;;
56136;SDS011;42008;52.934;5.884;2023-04-25T06:24:56;16.10;;;2.77;;
56136;SDS011;42008;52.934;5.884;2023-04-25T06:27:23;12.00;;;2.40;;
56136;SDS011;42008;52.934;5.884;2023-04-25T06:29:49;15.60;;;3.33;;
56136;SDS011;42008;52.934;5.884;2023-04-25T06:32:15;15.00;;;3.00;;
56136;SDS011;42008;52.934;5.884;2023-04-25T06:34:40;12.93;;;2.93;;
56136;SDS011;42008;52.934;5.884;2023-04-25T06:37:06;15.17;;;2.57;;
56136;SDS011;42008;52.934;5.884;2023-04-25T06:39:31;13.73;;;2.50;;
56136;SDS011;42008;52.934;5.884;2023-04-25T06:41:57;13.70;;;2.33;;
56136;SDS011;42008;52.934;5.884;2023-04-25T06:44:22;10.87;;;2.43;;
56136;SDS011;42008;52.934;5.884;2023-04-25T06:46:49;14.97;;;2.20;;
56136;SDS011;42008;52.934;5.884;2023-04-25T06:49:14;16.17;;;2.97;;
56136;SDS011;42008;52.934;5.884;2023-04-25T06:51:40;18.23;;;2.97;;
56136;SDS011;42008;52.934;5.884;2023-04-25T06:54:06;13.20;;;2.67;;
56136;SDS011;42008;52.934;5.884;2023-04-25T06:56:31;15.47;;;2.30;;
56136;SDS011;42008;52.934;5.884;2023-04-25T06:58:57;14.73;;;2.33;;
56136;SDS011;42008;52.934;5.884;2023-04-25T07:01:22;15.33;;;3.10;;
56136;SDS011;42008;52.934;5.884;2023-04-25T07:03:48;17.37;;;3.17;;
56136;SDS011;42008;52.934;5.884;2023-04-25T07:06:14;13.10;;;2.03;;
56136;SDS011;42008;52.934;5.884;2023-04-25T07:08:39;19.53;;;2.77;;
56136;SDS011;42008;52.934;5.884;2023-04-25T07:11:05;12.90;;;2.47;;
56136;SDS011;42008;52.934;5.884;2023-04-25T07:13:31;15.93;;;2.53;;
56136;SDS011;42008;52.934;5.884;2023-04-25T07:15:56;16.70;;;3.30;;
56136;SDS011;42008;52.934;5.884;2023-04-25T07:18:22;13.03;;;2.50;;
56136;SDS011;42008;52.934;5.884;2023-04-25T07:20:47;9.57;;;2.50;;
56136;SDS011;42008;52.934;5.884;2023-04-25T07:23:13;11.33;;;1.90;;
56136;SDS011;42008;52.934;5.884;2023-04-25T07:25:38;12.70;;;2.30;;
56136;SDS011;42008;52.934;5.884;2023-04-25T07:28:04;6.43;;;1.50;;
56136;SDS011;42008;52.934;5.884;2023-04-25T07:30:30;8.90;;;1.40;;
56136;SDS011;42008;52.934;5.884;2023-04-25T07:32:56;6.93;;;1.37;;
56136;SDS011;42008;52.934;5.884;2023-04-25T07:35:21;7.17;;;1.20;;
56136;SDS011;42008;52.934;5.884;2023-04-25T07:37:47;8.57;;;1.13;;
56136;SDS011;42008;52.934;5.884;2023-04-25T07:40:13;7.50;;;1.20;;
56136;SDS011;42008;52.934;5.884;2023-04-25T07:42:40;10.03;;;1.93;;
56136;SDS011;42008;52.934;5.884;2023-04-25T07:45:06;9.10;;;1.60;;
56136;SDS011;42008;52.934;5.884;2023-04-25T07:47:32;6.47;;;1.33;;
56136;SDS011;42008;52.934;5.884;2023-04-25T07:49:57;9.07;;;1.83;;
56136;SDS011;42008;52.934;5.884;2023-04-25T07:52:23;5.57;;;1.70;;
56136;SDS011;42008;52.934;5.884;2023-04-25T07:54:49;10.50;;;1.87;;
56136;SDS011;42008;52.934;5.884;2023-04-25T07:57:14;10.73;;;1.77;;
56136;SDS011;42008;52.934;5.884;2023-04-25T07:59:41;11.20;;;2.17;;
56136;SDS011;42008;52.934;5.884;2023-04-25T08:02:07;9.33;;;1.77;;
56136;SDS011;42008;52.934;5.884;2023-04-25T08:04:33;14.77;;;2.60;;
56136;SDS011;42008;52.934;5.884;2023-04-25T08:06:58;9.60;;;1.97;;
56136;SDS011;42008;52.934;5.884;2023-04-25T08:09:24;10.20;;;2.40;;
56136;SDS011;42008;52.934;5.884;2023-04-25T08:11:50;10.63;;;2.03;;
56136;SDS011;42008;52.934;5.884;2023-04-25T08:14:16;10.30;;;2.20;;
56136;SDS011;42008;52.934;5.884;2023-04-25T08:16:42;10.57;;;1.73;;
56136;SDS011;42008;52.934;5.884;2023-04-25T08:19:07;5.07;;;1.43;;
56136;SDS011;42008;52.934;5.884;2023-04-25T08:21:33;9.73;;;1.70;;
56136;SDS011;42008;52.934;5.884;2023-04-25T08:23:58;6.80;;;1.53;;
56136;SDS011;42008;52.934;5.884;2023-04-25T08:26:24;10.43;;;1.80;;
56136;SDS011;42008;52.934;5.884;2023-04-25T08:28:50;10.93;;;2.50;;
56136;SDS011;42008;52.934;5.884;2023-04-25T08:31:16;10.33;;;1.93;;
56136;SDS011;42008;52.934;5.884;2023-04-25T08:33:42;6.80;;;1.53;;
56136;SDS011;42008;52.934;5.884;2023-04-25T08:36:08;7.30;;;1.60;;
56136;SDS011;42008;52.934;5.884;2023-04-25T08:38:34;8.17;;;1.87;;
56136;SDS011;42008;52.934;5.884;2023-04-25T08:41:00;11.63;;;2.23;;
56136;SDS011;42008;52.934;5.884;2023-04-25T08:43:28;14.93;;;3.00;;
56136;SDS011;42008;52.934;5.884;2023-04-25T08:45:54;9.27;;;2.10;;
56136;SDS011;42008;52.934;5.884;2023-04-25T08:48:25;15.47;;;2.07;;
56136;SDS011;42008;52.934;5.884;2023-04-25T08:50:53;12.03;;;2.43;;
56136;SDS011;42008;52.934;5.884;2023-04-25T08:53:21;8.10;;;2.47;;
56136;SDS011;42008;52.934;5.884;2023-04-25T08:55:50;18.90;;;2.43;;
56136;SDS011;42008;52.934;5.884;2023-04-25T08:58:18;9.83;;;2.53;;
56136;SDS011;42008;52.934;5.884;2023-04-25T09:00:45;10.53;;;2.37;;
56136;SDS011;42008;52.934;5.884;2023-04-25T09:03:12;12.20;;;2.70;;
56136;SDS011;42008;52.934;5.884;2023-04-25T09:05:38;14.27;;;2.40;;
56136;SDS011;42008;52.934;5.884;2023-04-25T09:08:05;10.17;;;2.10;;
56136;SDS011;42008;52.934;5.884;2023-04-25T09:10:31;11.00;;;2.10;;
56136;SDS011;42008;52.934;5.884;2023-04-25T09:15:51;11.60;;;2.10;;
56136;SDS011;42008;52.934;5.884;2023-04-25T09:18:25;12.07;;;2.23;;
56136;SDS011;42008;52.934;5.884;2023-04-25T09:20:55;13.17;;;2.60;;
56136;SDS011;42008;52.934;5.884;2023-04-25T09:23:38;11.53;;;2.10;;
56136;SDS011;42008;52.934;5.884;2023-04-25T09:26:10;12.53;;;2.50;;
56136;SDS011;42008;52.934;5.884;2023-04-25T09:28:39;8.37;;;1.83;;
56136;SDS011;42008;52.934;5.884;2023-04-25T09:31:05;15.17;;;2.47;;
56136;SDS011;42008;52.934;5.884;2023-04-25T09:33:32;16.33;;;2.63;;
56136;SDS011;42008;52.934;5.884;2023-04-25T09:36:03;13.40;;;2.53;;
56136;SDS011;42008;52.934;5.884;2023-04-25T09:38:31;9.80;;;2.40;;
56136;SDS011;42008;52.934;5.884;2023-04-25T09:40:58;10.27;;;2.40;;
56136;SDS011;42008;52.934;5.884;2023-04-25T09:43:24;7.10;;;1.70;;
56136;SDS011;42008;52.934;5.884;2023-04-25T09:45:53;10.20;;;2.40;;
56136;SDS011;42008;52.934;5.884;2023-04-25T09:48:24;8.77;;;1.90;;
56136;SDS011;42008;52.934;5.884;2023-04-25T09:53:35;9.33;;;1.87;;
56136;SDS011;42008;52.934;5.884;2023-04-25T09:56:03;8.53;;;1.77;;
56136;SDS011;42008;52.934;5.884;2023-04-25T09:58:30;10.90;;;2.00;;
56136;SDS011;42008;52.934;5.884;2023-04-25T10:00:58;12.00;;;2.03;;
56136;SDS011;42008;52.934;5.884;2023-04-25T10:03:26;9.97;;;2.37;;
56136;SDS011;42008;52.934;5.884;2023-04-25T10:05:52;9.00;;;2.20;;
56136;SDS011;42008;52.934;5.884;2023-04-25T10:08:19;10.13;;;1.90;;
56136;SDS011;42008;52.934;5.884;2023-04-25T10:10:46;10.80;;;1.80;;
56136;SDS011;42008;52.934;5.884;2023-04-25T10:13:13;9.03;;;1.80;;
56136;SDS011;42008;52.934;5.884;2023-04-25T10:15:39;9.77;;;1.93;;
56136;SDS011;42008;52.934;5.884;2023-04-25T10:18:06;5.43;;;1.57;;
56136;SDS011;42008;52.934;5.884;2023-04-25T10:20:32;8.20;;;1.70;;
56136;SDS011;42008;52.934;5.884;2023-04-25T10:22:58;7.37;;;1.80;;
56136;SDS011;42008;52.934;5.884;2023-04-25T10:25:35;9.87;;;1.97;;
56136;SDS011;42008;52.934;5.884;2023-04-25T10:28:02;9.03;;;2.17;;
56136;SDS011;42008;52.934;5.884;2023-04-25T10:30:29;12.33;;;2.27;;
56136;SDS011;42008;52.934;5.884;2023-04-25T10:32:55;9.27;;;1.97;;
56136;SDS011;42008;52.934;5.884;2023-04-25T10:35:25;9.20;;;2.40;;
56136;SDS011;42008;52.934;5.884;2023-04-25T10:37:59;12.80;;;2.10;;
56136;SDS011;42008;52.934;5.884;2023-04-25T10:40:28;8.53;;;2.13;;
56136;SDS011;42008;52.934;5.884;2023-04-25T10:42:55;9.50;;;2.10;;
56136;SDS011;42008;52.934;5.884;2023-04-25T10:45:50;12.70;;;2.43;;
56136;SDS011;42008;52.934;5.884;2023-04-25T10:48:26;12.73;;;2.13;;
56136;SDS011;42008;52.934;5.884;2023-04-25T10:51:09;11.53;;;1.90;;
56136;SDS011;42008;52.934;5.884;2023-04-25T10:54:00;7.82;;;1.85;;
56136;SDS011;42008;52.934;5.884;2023-04-25T10:59:04;8.53;;;1.70;;
56136;SDS011;42008;52.934;5.884;2023-04-25T11:01:53;12.47;;;1.90;;
56136;SDS011;42008;52.934;5.884;2023-04-25T11:04:23;12.13;;;2.07;;
56136;SDS011;42008;52.934;5.884;2023-04-25T11:09:27;11.03;;;2.13;;
56136;SDS011;42008;52.934;5.884;2023-04-25T11:11:54;11.73;;;2.47;;
56136;SDS011;42008;52.934;5.884;2023-04-25T11:14:20;14.40;;;2.23;;
56136;SDS011;42008;52.934;5.884;2023-04-25T11:16:46;12.33;;;2.23;;
56136;SDS011;42008;52.934;5.884;2023-04-25T11:19:12;8.47;;;1.70;;
56136;SDS011;42008;52.934;5.884;2023-04-25T11:21:38;11.30;;;2.17;;
56136;SDS011;42008;52.934;5.884;2023-04-25T11:24:03;10.90;;;2.17;;
56136;SDS011;42008;52.934;5.884;2023-04-25T11:26:29;9.53;;;2.17;;
56136;SDS011;42008;52.934;5.884;2023-04-25T11:28:59;9.33;;;2.70;;
56136;SDS011;42008;52.934;5.884;2023-04-25T11:31:28;14.52;;;2.33;;
56136;SDS011;42008;52.934;5.884;2023-04-25T11:33:56;11.17;;;2.50;;
56136;SDS011;42008;52.934;5.884;2023-04-25T11:36:22;7.67;;;2.27;;
56136;SDS011;42008;52.934;5.884;2023-04-25T11:38:50;8.97;;;1.93;;
56136;SDS011;42008;52.934;5.884;2023-04-25T11:41:17;8.03;;;1.63;;
56136;SDS011;42008;52.934;5.884;2023-04-25T11:43:43;11.23;;;2.33;;
56136;SDS011;42008;52.934;5.884;2023-04-25T11:46:09;9.97;;;1.77;;
56136;SDS011;42008;52.934;5.884;2023-04-25T11:48:38;8.37;;;2.50;;
56136;SDS011;42008;52.934;5.884;2023-04-25T11:51:05;9.47;;;2.33;;
56136;SDS011;42008;52.934;5.884;2023-04-25T11:53:30;10.67;;;2.80;;
56136;SDS011;42008;52.934;5.884;2023-04-25T11:55:56;11.07;;;2.17;;
56136;SDS011;42008;52.934;5.884;2023-04-25T11:58:22;8.47;;;2.30;;
56136;SDS011;42008;52.934;5.884;2023-04-25T12:00:47;13.03;;;2.30;;
56136;SDS011;42008;52.934;5.884;2023-04-25T12:03:13;13.87;;;2.27;;
56136;SDS011;42008;52.934;5.884;2023-04-25T12:05:39;11.63;;;2.57;;
56136;SDS011;42008;52.934;5.884;2023-04-25T12:08:14;13.87;;;2.50;;
56136;SDS011;42008;52.934;5.884;2023-04-25T12:10:41;14.10;;;2.37;;
56136;SDS011;42008;52.934;5.884;2023-04-25T12:13:24;11.40;;;1.90;;
56136;SDS011;42008;52.934;5.884;2023-04-25T12:15:51;12.13;;;2.55;;
56136;SDS011;42008;52.934;5.884;2023-04-25T12:18:19;13.47;;;2.57;;
56136;SDS011;42008;52.934;5.884;2023-04-25T12:20:47;8.97;;;2.30;;
56136;SDS011;42008;52.934;5.884;2023-04-25T12:23:13;10.23;;;2.40;;
56136;SDS011;42008;52.934;5.884;2023-04-25T12:28:09;11.90;;;2.23;;
56136;SDS011;42008;52.934;5.884;2023-04-25T12:33:22;11.93;;;2.10;;
56136;SDS011;42008;52.934;5.884;2023-04-25T12:35:48;9.20;;;1.80;;
56136;SDS011;42008;52.934;5.884;2023-04-25T12:38:20;11.17;;;1.90;;
56136;SDS011;42008;52.934;5.884;2023-04-25T12:40:46;9.40;;;1.87;;
56136;SDS011;42008;52.934;5.884;2023-04-25T12:43:11;9.17;;;1.50;;
56136;SDS011;42008;52.934;5.884;2023-04-25T12:45:37;12.20;;;1.60;;
56136;SDS011;42008;52.934;5.884;2023-04-25T12:48:03;11.70;;;1.57;;
56136;SDS011;42008;52.934;5.884;2023-04-25T12:50:28;12.80;;;2.00;;
56136;SDS011;42008;52.934;5.884;2023-04-25T12:52:54;9.23;;;2.60;;
56136;SDS011;42008;52.934;5.884;2023-04-25T12:55:19;10.17;;;1.77;;
56136;SDS011;42008;52.934;5.884;2023-04-25T12:57:45;9.30;;;1.80;;
56136;SDS011;42008;52.934;5.884;2023-04-25T13:00:10;8.80;;;2.13;;
56136;SDS011;42008;52.934;5.884;2023-04-25T13:02:39;7.83;;;1.90;;
56136;SDS011;42008;52.934;5.884;2023-04-25T13:05:05;10.17;;;2.03;;
56136;SDS011;42008;52.934;5.884;2023-04-25T13:07:31;9.53;;;2.03;;
56136;SDS011;42008;52.934;5.884;2023-04-25T13:09:57;5.73;;;1.40;;
56136;SDS011;42008;52.934;5.884;2023-04-25T13:12:22;13.43;;;1.90;;
56136;SDS011;42008;52.934;5.884;2023-04-25T13:14:48;8.33;;;1.80;;
56136;SDS011;42008;52.934;5.884;2023-04-25T13:17:13;8.83;;;2.53;;
56136;SDS011;42008;52.934;5.884;2023-04-25T13:19:39;11.13;;;2.47;;
56136;SDS011;42008;52.934;5.884;2023-04-25T13:22:04;7.77;;;1.80;;
56136;SDS011;42008;52.934;5.884;2023-04-25T13:24:30;10.97;;;2.10;;
56136;SDS011;42008;52.934;5.884;2023-04-25T13:26:56;11.50;;;2.20;;
56136;SDS011;42008;52.934;5.884;2023-04-25T13:29:21;11.63;;;2.47;;
56136;SDS011;42008;52.934;5.884;2023-04-25T13:31:47;12.43;;;2.30;;
56136;SDS011;42008;52.934;5.884;2023-04-25T13:34:12;10.33;;;1.90;;
56136;SDS011;42008;52.934;5.884;2023-04-25T13:36:38;6.13;;;1.73;;
56136;SDS011;42008;52.934;5.884;2023-04-25T13:39:03;6.70;;;1.70;;
56136;SDS011;42008;52.934;5.884;2023-04-25T13:41:30;11.63;;;1.80;;
56136;SDS011;42008;52.934;5.884;2023-04-25T13:43:56;12.37;;;2.20;;
56136;SDS011;42008;52.934;5.884;2023-04-25T13:46:22;7.37;;;2.07;;
56136;SDS011;42008;52.934;5.884;2023-04-25T13:48:48;13.93;;;2.80;;
56136;SDS011;42008;52.934;5.884;2023-04-25T13:51:14;13.90;;;2.57;;
56136;SDS011;42008;52.934;5.884;2023-04-25T13:53:40;9.87;;;1.97;;
56136;SDS011;42008;52.934;5.884;2023-04-25T13:56:06;9.50;;;2.17;;
56136;SDS011;42008;52.934;5.884;2023-04-25T13:58:31;12.97;;;2.57;;
56136;SDS011;42008;52.934;5.884;2023-04-25T14:00:58;13.03;;;2.33;;
56136;SDS011;42008;52.934;5.884;2023-04-25T14:03:23;10.77;;;2.63;;
56136;SDS011;42008;52.934;5.884;2023-04-25T14:05:49;15.30;;;3.23;;
56136;SDS011;42008;52.934;5.884;2023-04-25T14:08:16;13.20;;;2.83;;
56136;SDS011;42008;52.934;5.884;2023-04-25T14:10:41;12.87;;;2.20;;
56136;SDS011;42008;52.934;5.884;2023-04-25T14:13:07;13.13;;;2.13;;
56136;SDS011;42008;52.934;5.884;2023-04-25T14:15:32;9.40;;;2.47;;
56136;SDS011;42008;52.934;5.884;2023-04-25T14:17:59;10.83;;;1.83;;
56136;SDS011;42008;52.934;5.884;2023-04-25T14:20:25;8.13;;;2.10;;
56136;SDS011;42008;52.934;5.884;2023-04-25T14:22:51;11.30;;;2.07;;
56136;SDS011;42008;52.934;5.884;2023-04-25T14:25:18;9.07;;;1.87;;
56136;SDS011;42008;52.934;5.884;2023-04-25T14:27:44;13.13;;;2.23;;
56136;SDS011;42008;52.934;5.884;2023-04-25T14:30:14;8.20;;;1.80;;
56136;SDS011;42008;52.934;5.884;2023-04-25T14:32:44;10.53;;;2.30;;
56136;SDS011;42008;52.934;5.884;2023-04-25T14:35:10;9.37;;;2.47;;
56136;SDS011;42008;52.934;5.884;2023-04-25T14:37:36;11.47;;;3.07;;
56136;SDS011;42008;52.934;5.884;2023-04-25T14:40:01;14.57;;;2.13;;
56136;SDS011;42008;52.934;5.884;2023-04-25T14:42:28;14.33;;;2.33;;
56136;SDS011;42008;52.934;5.884;2023-04-25T14:44:53;10.93;;;1.87;;
56136;SDS011;42008;52.934;5.884;2023-04-25T14:47:19;11.97;;;2.43;;
56136;SDS011;42008;52.934;5.884;2023-04-25T14:49:44;8.53;;;2.30;;